Time;durP1;ratioP1;P1;durP2;ratioP2;P2;SDS_P1;SDS_P2;PMS_P1;PMS_P2;Temp;Humidity;BMP_temperature;BMP_pressure;BME280_temperature;BME280_humidity;BME280_pressure;Samples;Min_cycle;Max_cycle;Signal;HPM_P1;HPM_P2
2022/05/28 00:00:20;;;;;;;10.13;6.42;;;;;;;9.81;85.55;98410.16;1636779;86;25696;-58
2022/05/28 00:02:47;;;;;;;8.30;6.50;;;;;;;9.86;85.46;98405.34;1636541;87;25697;-58
2022/05/28 00:05:13;;;;;;;9.28;6.12;;;;;;;9.90;85.43;98402.22;1636701;86;25763;-57
2022/05/28 00:07:40;;;;;;;8.23;5.92;;;;;;;9.96;85.37;98401.52;1633150;86;25503;-58
2022/05/28 00:10:11;;;;;;;9.18;6.40;;;;;;;10.04;85.33;98402.67;1629022;87;27510;-57
2022/05/28 00:12:39;;;;;;;8.08;5.75;;;;;;;10.07;85.30;98403.41;1633448;86;25799;-57
2022/05/28 00:15:08;;;;;;;8.85;5.03;;;;;;;10.12;85.27;98390.95;1629051;87;25650;-57
2022/05/28 00:17:34;;;;;;;7.78;5.97;;;;;;;10.15;85.35;98390.88;1629349;87;25910;-58
2022/05/28 00:20:01;;;;;;;8.60;6.12;;;;;;;10.16;85.20;98391.92;1628935;87;25461;-58
2022/05/28 00:22:27;;;;;;;8.23;5.70;;;;;;;10.21;85.22;98397.00;1629379;88;27619;-58
2022/05/28 00:24:56;;;;;;;9.98;6.47;;;;;;;10.19;85.16;98390.47;1628909;87;25719;-58
2022/05/28 00:27:23;;;;;;;8.05;5.92;;;;;;;10.17;85.10;98388.63;1629378;87;25500;-58
2022/05/28 00:29:49;;;;;;;7.85;6.10;;;;;;;10.16;85.26;98385.63;1628968;88;25874;-58
2022/05/28 00:32:15;;;;;;;8.28;5.42;;;;;;;10.15;85.16;98390.88;1629255;88;25707;-57
2022/05/28 00:34:41;;;;;;;7.00;5.40;;;;;;;10.19;85.35;98394.58;1629305;87;28231;-59
2022/05/28 00:37:08;;;;;;;8.08;4.80;;;;;;;10.23;85.11;98391.47;1629486;87;25654;-58
2022/05/28 00:39:34;;;;;;;12.50;6.03;;;;;;;10.27;84.87;98382.04;1612586;87;25784;-58
2022/05/28 00:42:01;;;;;;;7.33;5.12;;;;;;;10.30;84.66;98382.77;1639045;87;25627;-58
2022/05/28 00:44:27;;;;;;;7.25;5.33;;;;;;;10.30;84.39;98374.55;1630379;86;25428;-58
2022/05/28 00:46:56;;;;;;;7.60;5.30;;;;;;;10.32;84.18;98370.95;1629052;88;27437;-56
2022/05/28 00:49:27;;;;;;;8.85;5.62;;;;;;;10.29;84.05;98364.19;1628899;88;25679;-59
2022/05/28 00:51:59;;;;;;;8.05;5.50;;;;;;;10.28;84.08;98368.61;1629281;87;25645;-58
2022/05/28 00:54:28;;;;;;;10.03;5.75;;;;;;;10.24;84.03;98366.24;1629436;88;25849;-59
2022/05/28 00:56:55;;;;;;;8.08;5.33;;;;;;;10.17;84.12;98365.36;1629400;87;25491;-58
2022/05/28 00:59:21;;;;;;;9.50;5.45;;;;;;;10.10;83.89;98363.66;1609451;88;27488;-58
2022/05/28 01:01:47;;;;;;;9.78;5.12;;;;;;;9.99;83.86;98369.98;1624948;88;25861;-58
2022/05/28 01:04:24;;;;;;;7.78;5.47;;;;;;;9.86;84.05;98368.95;1626757;88;25582;-58
2022/05/28 01:07:05;;;;;;;7.95;5.28;;;;;;;9.75;84.42;98367.05;1629325;87;25754;-58
2022/05/28 01:09:57;;;;;;;7.50;4.87;;;;;;;9.71;84.49;98368.81;1629154;87;25645;-58
2022/05/28 01:12:53;;;;;;;8.38;5.90;;;;;;;9.66;84.82;98367.84;1629008;87;27451;-59
2022/05/28 01:15:27;;;;;;;10.25;5.35;;;;;;;9.64;84.60;98366.52;1628971;87;25733;-58
2022/05/28 01:18:04;;;;;;;8.75;5.80;;;;;;;9.63;84.64;98364.91;1629274;87;25697;-58
2022/05/28 01:20:36;;;;;;;8.70;6.00;;;;;;;9.61;84.61;98365.78;1629302;87;25691;-58
2022/05/28 01:23:33;;;;;;;8.75;5.55;;;;;;;9.60;84.75;98369.64;1631131;87;25499;-56
2022/05/28 01:26:53;;;;;;;8.03;5.67;;;;;;;9.58;84.55;98363.70;1630928;88;26805;-57
2022/05/28 01:29:22;;;;;;;9.40;5.90;;;;;;;9.53;84.74;98357.80;1628935;87;26000;-57
2022/05/28 01:31:50;;;;;;;8.20;5.85;;;;;;;9.51;84.62;98358.67;1629215;87;25567;-57
2022/05/28 01:34:18;;;;;;;7.85;5.65;;;;;;;9.51;84.54;98359.48;1629392;87;25710;-57
2022/05/28 01:36:45;;;;;;;8.25;5.65;;;;;;;9.51;84.41;98365.50;1629353;87;25425;-57
2022/05/28 01:39:13;;;;;;;9.03;6.58;;;;;;;9.50;84.39;98361.16;1629206;87;28239;-58
2022/05/28 01:41:40;;;;;;;8.73;6.10;;;;;;;9.44;84.35;98363.78;1629021;87;25928;-57
2022/05/28 01:44:10;;;;;;;7.67;5.50;;;;;;;9.36;84.50;98355.20;1629288;87;25532;-57
2022/05/28 01:46:39;;;;;;;11.28;6.33;;;;;;;9.28;84.87;98357.34;1629619;87;25788;-60
2022/05/28 01:49:10;;;;;;;8.28;5.35;;;;;;;9.23;84.67;98356.91;1628936;87;25684;-61
2022/05/28 01:51:41;;;;;;;8.80;6.08;;;;;;;9.19;85.10;98353.19;1629452;87;27411;-58
2022/05/28 01:54:13;;;;;;;6.78;5.58;;;;;;;9.16;84.92;98351.08;1629247;88;25697;-60
2022/05/28 01:56:46;;;;;;;10.23;5.17;;;;;;;9.16;84.86;98353.81;1629223;88;25471;-58
2022/05/28 01:59:17;;;;;;;8.23;5.75;;;;;;;9.15;84.81;98353.55;1629095;87;25789;-57
2022/05/28 02:01:44;;;;;;;11.43;6.20;;;;;;;9.11;84.85;98342.99;1629399;87;25471;-57
2022/05/28 02:04:11;;;;;;;7.97;5.90;;;;;;;9.09;85.00;98341.12;1629305;87;27482;-57
2022/05/28 02:06:39;;;;;;;6.87;5.47;;;;;;;9.08;85.07;98348.53;1629128;87;25535;-57
2022/05/28 02:09:11;;;;;;;6.65;5.28;;;;;;;9.07;85.22;98342.80;1634461;87;25637;-58
2022/05/28 02:11:49;;;;;;;7.72;5.87;;;;;;;9.03;85.40;98337.71;1635724;87;26167;-58
2022/05/28 02:14:35;;;;;;;8.90;5.22;;;;;;;8.99;85.55;98336.73;1636929;87;25623;-58
2022/05/28 02:17:12;;;;;;;6.95;4.80;;;;;;;8.97;85.75;98339.77;1636797;87;28158;-57
2022/05/28 02:20:10;;;;;;;8.68;5.00;;;;;;;8.92;85.86;98335.78;1636720;86;25608;-58
2022/05/28 02:23:03;;;;;;;10.40;5.72;;;;;;;8.89;86.15;98336.41;1636709;86;25519;-58
2022/05/28 02:25:52;;;;;;;5.20;4.30;;;;;;;8.85;85.98;98337.60;1635925;87;26724;-58
2022/05/28 02:28:22;;;;;;;7.72;5.42;;;;;;;8.84;86.35;98331.08;1636723;87;25641;-57
2022/05/28 02:30:54;;;;;;;7.92;5.42;;;;;;;8.81;86.17;98324.29;1635923;87;25830;-58
2022/05/28 02:33:22;;;;;;;7.50;4.45;;;;;;;8.80;86.26;98319.16;1636694;86;25459;-58
2022/05/28 02:35:49;;;;;;;8.15;5.95;;;;;;;8.77;86.68;98318.66;1636359;87;25724;-59
2022/05/28 02:38:17;;;;;;;8.63;5.67;;;;;;;8.79;86.50;98323.81;1636573;87;25748;-59
2022/05/28 02:40:43;;;;;;;11.38;5.75;;;;;;;8.77;86.17;98325.48;1636470;87;25487;-57
2022/05/28 02:43:11;;;;;;;9.85;6.42;;;;;;;8.78;85.92;98320.27;1636891;87;27542;-57
2022/05/28 02:45:38;;;;;;;9.85;5.50;;;;;;;8.80;85.82;98319.95;1636305;87;25474;-57
2022/05/28 02:48:04;;;;;;;6.10;5.17;;;;;;;8.83;85.70;98323.98;1636821;86;25688;-57
2022/05/28 02:50:31;;;;;;;12.45;6.70;;;;;;;8.81;85.53;98317.46;1636805;87;25775;-57
2022/05/28 02:53:02;;;;;;;9.70;5.10;;;;;;;8.80;85.48;98313.70;1636915;86;25480;-57
2022/05/28 02:55:33;;;;;;;9.23;5.22;;;;;;;8.80;85.38;98314.48;1636612;87;27428;-57
2022/05/28 02:58:06;;;;;;;6.83;5.50;;;;;;;8.79;85.40;98319.72;1637156;87;25677;-57
2022/05/28 03:00:40;;;;;;;8.53;6.10;;;;;;;8.76;85.38;98321.70;1636728;87;25760;-57
2022/05/28 03:03:08;;;;;;;8.10;5.95;;;;;;;8.71;85.29;98328.09;1636004;87;25522;-58
2022/05/28 03:05:37;;;;;;;9.03;6.20;;;;;;;8.68;85.43;98327.34;1636617;87;25679;-58
2022/05/28 03:08:04;;;;;;;8.65;6.22;;;;;;;8.64;85.41;98330.45;1635178;87;27595;-57
2022/05/28 03:10:30;;;;;;;9.73;6.87;;;;;;;8.62;85.46;98323.93;1629327;87;25447;-57
2022/05/28 03:12:56;;;;;;;9.58;6.95;;;;;;;8.63;85.60;98321.98;1629255;87;25459;-57
2022/05/28 03:15:22;;;;;;;11.10;7.80;;;;;;;8.64;86.04;98320.31;1629406;87;26462;-57
2022/05/28 03:17:48;;;;;;;12.45;8.95;;;;;;;8.65;85.82;98325.23;1629545;87;25442;-59
2022/05/28 03:20:14;;;;;;;12.20;8.20;;;;;;;8.68;85.88;98323.80;1629296;87;28176;-57
2022/05/28 03:22:39;;;;;;;15.35;9.00;;;;;;;8.71;85.98;98330.00;1631746;87;25475;-58
2022/05/28 03:25:07;;;;;;;11.97;8.78;;;;;;;8.74;86.09;98324.74;1631736;87;25678;-57
2022/05/28 03:27:32;;;;;;;14.55;9.40;;;;;;;8.81;86.16;98327.60;1630664;88;25880;-57
2022/05/28 03:29:58;;;;;;;13.40;8.48;;;;;;;8.86;86.20;98327.45;1629561;87;25716;-58
2022/05/28 03:32:24;;;;;;;11.20;8.13;;;;;;;8.93;86.06;98325.13;1629609;87;27653;-57
2022/05/28 03:34:50;;;;;;;9.38;7.65;;;;;;;9.00;85.82;98325.48;1629255;87;25840;-57
2022/05/28 03:37:16;;;;;;;14.13;8.18;;;;;;;9.08;85.79;98325.84;1629420;87;25626;-58
2022/05/28 03:39:42;;;;;;;10.65;7.95;;;;;;;9.13;85.72;98323.78;1629536;88;25678;-58
2022/05/28 03:42:08;;;;;;;11.73;8.30;;;;;;;9.19;85.64;98325.03;1629455;87;25668;-57
2022/05/28 03:44:34;;;;;;;11.75;7.62;;;;;;;9.22;85.36;98332.06;1629162;87;27484;-58
2022/05/28 03:47:00;;;;;;;11.03;8.30;;;;;;;9.28;85.17;98328.08;1629211;87;26015;-58
2022/05/28 03:49:32;;;;;;;10.53;8.30;;;;;;;9.34;84.94;98323.27;1629165;87;25685;-58
2022/05/28 03:51:58;;;;;;;9.48;7.30;;;;;;;9.40;84.71;98328.86;1629381;87;25934;-58
2022/05/28 03:54:24;;;;;;;11.10;7.45;;;;;;;9.48;84.52;98330.57;1629427;87;25444;-57
2022/05/28 03:56:56;;;;;;;11.12;7.42;;;;;;;9.52;84.43;98334.28;1629484;87;27533;-58
2022/05/28 03:59:22;;;;;;;9.95;7.55;;;;;;;9.62;84.77;98327.74;1629196;87;25602;-58
2022/05/28 04:01:47;;;;;;;11.63;6.40;;;;;;;9.80;84.64;98320.41;1629393;87;25678;-58
2022/05/28 04:04:13;;;;;;;10.48;6.70;;;;;;;9.93;83.94;98313.77;1629285;87;25657;-58
2022/05/28 04:06:40;;;;;;;7.33;5.90;;;;;;;10.06;84.08;98314.75;1629510;88;25448;-57
2022/05/28 04:09:07;;;;;;;8.55;6.15;;;;;;;10.17;83.57;98313.33;1632442;87;28298;-57
2022/05/28 04:11:35;;;;;;;9.58;6.08;;;;;;;10.28;83.93;98315.99;1636622;86;26012;-57
2022/05/28 04:14:02;;;;;;;8.75;6.08;;;;;;;10.41;83.54;98316.98;1642392;86;25459;-57
2022/05/28 04:16:28;;;;;;;7.15;5.30;;;;;;;10.53;82.64;98321.03;1636752;86;26545;-57
2022/05/28 04:18:54;;;;;;;7.47;5.05;;;;;;;10.63;81.98;98318.55;1636683;87;25740;-57
2022/05/28 04:21:19;;;;;;;8.08;5.03;;;;;;;10.75;82.10;98314.61;1636830;87;27503;-58
2022/05/28 04:23:45;;;;;;;7.90;4.90;;;;;;;10.90;80.77;98316.03;1636621;87;25806;-57
2022/05/28 04:26:11;;;;;;;6.53;4.40;;;;;;;11.01;80.51;98315.70;1636443;87;25645;-57
2022/05/28 04:28:37;;;;;;;8.78;5.03;;;;;;;11.15;80.99;98327.30;1636904;87;25757;-57
2022/05/28 04:31:03;;;;;;;9.30;5.00;;;;;;;11.29;79.59;98318.06;1636805;87;25634;-60
2022/05/28 04:33:29;;;;;;;6.92;4.62;;;;;;;11.37;79.52;98318.59;1636913;87;27465;-60
2022/05/28 04:35:55;;;;;;;6.78;4.50;;;;;;;11.46;79.57;98320.52;1636612;87;25468;-61
2022/05/28 04:38:23;;;;;;;6.92;4.30;;;;;;;11.55;79.51;98317.96;1634910;87;25423;-58
2022/05/28 04:40:50;;;;;;;6.08;4.97;;;;;;;11.62;78.28;98319.39;1635846;87;25942;-60
2022/05/28 04:43:18;;;;;;;7.05;4.92;;;;;;;11.75;79.03;98332.67;1636742;87;25697;-61
2022/05/28 04:45:45;;;;;;;6.58;4.53;;;;;;;11.83;78.43;98330.44;1636544;87;28516;-57
2022/05/28 04:48:12;;;;;;;6.55;3.98;;;;;;;11.94;77.84;98326.75;1636557;86;25701;-58
2022/05/28 04:50:38;;;;;;;8.65;4.50;;;;;;;12.01;78.11;98334.48;1636663;87;25635;-58
2022/05/28 04:53:05;;;;;;;6.22;4.00;;;;;;;12.13;77.36;98331.86;1636738;87;25787;-58
2022/05/28 04:55:32;;;;;;;6.58;3.98;;;;;;;12.22;77.34;98332.36;1636669;87;25772;-57
2022/05/28 04:57:58;;;;;;;7.37;3.92;;;;;;;12.35;76.85;98328.55;1636634;87;27451;-58
2022/05/28 05:00:31;;;;;;;6.37;3.80;;;;;;;12.47;75.73;98327.84;1636492;87;25713;-57
2022/05/28 05:03:00;;;;;;;5.90;3.75;;;;;;;12.55;75.47;98324.77;1636407;86;25630;-58
2022/05/28 05:05:29;;;;;;;5.35;3.42;;;;;;;12.67;75.84;98331.72;1636797;87;25646;-58
2022/05/28 05:08:02;;;;;;;7.22;3.42;;;;;;;12.76;75.33;98323.98;1636473;87;25744;-57
2022/05/28 05:10:33;;;;;;;7.15;3.20;;;;;;;12.87;74.87;98331.25;1636206;87;27440;-61
2022/05/28 05:13:00;;;;;;;4.67;2.60;;;;;;;12.93;73.99;98329.31;1636614;87;25969;-59
2022/05/28 05:15:27;;;;;;;6.25;2.72;;;;;;;12.99;74.22;98334.61;1636575;87;25602;-57
2022/05/28 05:17:53;;;;;;;5.97;2.50;;;;;;;13.10;72.73;98332.25;1636998;87;26109;-58
2022/05/28 05:20:20;;;;;;;6.08;2.67;;;;;;;13.20;73.66;98331.81;1636955;86;25460;-58
2022/05/28 05:22:46;;;;;;;5.28;2.40;;;;;;;13.33;73.37;98340.11;1636906;87;27648;-58
2022/05/28 05:25:14;;;;;;;5.90;3.08;;;;;;;13.47;73.27;98343.34;1636689;86;25707;-57
2022/05/28 05:27:42;;;;;;;6.47;2.70;;;;;;;13.61;72.59;98336.17;1636684;86;25474;-58
2022/05/28 05:30:10;;;;;;;4.10;2.80;;;;;;;13.75;72.04;98346.86;1636591;87;25748;-59
2022/05/28 05:32:35;;;;;;;3.45;2.33;;;;;;;13.79;70.85;98343.64;1636836;87;25641;-57
2022/05/28 05:35:02;;;;;;;4.25;2.58;;;;;;;13.85;70.86;98350.31;1636411;87;27456;-56
2022/05/28 05:37:28;;;;;;;12.82;3.00;;;;;;;13.91;69.88;98346.19;1639923;86;25627;-56
2022/05/28 05:39:54;;;;;;;4.12;1.85;;;;;;;13.90;70.19;98346.75;1636768;87;25536;-57
2022/05/28 05:42:20;;;;;;;4.00;1.87;;;;;;;14.07;68.56;98347.67;1636793;86;25657;-56
2022/05/28 05:44:46;;;;;;;3.80;1.80;;;;;;;14.13;68.38;98349.05;1636958;87;25630;-56
2022/05/28 05:47:12;;;;;;;5.17;2.25;;;;;;;14.10;66.77;98351.11;1636502;87;27437;-56
2022/05/28 05:49:38;;;;;;;6.50;2.33;;;;;;;14.08;65.80;98354.80;1636548;87;25504;-56
2022/05/28 05:52:05;;;;;;;5.83;3.45;;;;;;;14.09;66.74;98351.45;1636778;86;25546;-56
2022/05/28 05:54:32;;;;;;;15.50;6.33;;;;;;;14.14;65.47;98351.23;1636621;87;25752;-57
2022/05/28 05:56:58;;;;;;;8.58;3.60;;;;;;;14.16;66.97;98351.67;1636602;87;25650;-56
2022/05/28 05:59:24;;;;;;;5.10;2.47;;;;;;;14.22;64.34;98344.78;1636763;87;27451;-56
2022/05/28 06:01:50;;;;;;;4.83;2.45;;;;;;;14.21;64.51;98357.53;1636953;87;25495;-57
2022/05/28 06:04:16;;;;;;;5.05;1.60;;;;;;;14.24;65.66;98351.33;1636621;87;25522;-57
2022/05/28 06:06:42;;;;;;;5.75;2.50;;;;;;;14.33;63.53;98349.25;1636664;87;26137;-58
2022/05/28 06:09:09;;;;;;;4.75;2.40;;;;;;;14.39;64.60;98354.76;1638968;87;25489;-56
2022/05/28 06:11:36;;;;;;;6.45;2.60;;;;;;;14.64;64.89;98349.20;1636705;87;27342;-57
2022/05/28 06:14:03;;;;;;;4.33;1.82;;;;;;;14.64;64.89;98349.20;1636810;87;25624;-56
2022/05/28 06:16:30;;;;;;;8.30;2.95;;;;;;;14.77;63.34;98340.30;1636731;87;25621;-58
2022/05/28 06:18:56;;;;;;;21.93;8.50;;;;;;;14.95;62.40;98345.57;1636568;87;25606;-57
2022/05/28 06:21:24;;;;;;;20.12;7.00;;;;;;;15.11;61.93;98340.69;1636606;87;25472;-56
2022/05/28 06:23:50;;;;;;;9.78;3.87;;;;;;;15.21;62.15;98337.97;1636941;87;27456;-56
2022/05/28 06:26:16;;;;;;;12.00;3.27;;;;;;;15.34;61.13;98331.22;1636820;86;25440;-56
2022/05/28 06:28:42;;;;;;;9.70;2.17;;;;;;;15.45;58.91;98327.38;1636615;86;25478;-56
2022/05/28 06:31:12;;;;;;;4.25;1.37;;;;;;;15.59;58.70;98330.27;1636911;87;25729;-56
2022/05/28 06:33:40;;;;;;;4.27;1.60;;;;;;;15.59;58.70;98330.27;1637230;86;25446;-56
2022/05/28 06:36:09;;;;;;;7.20;2.00;;;;;;;15.77;60.11;98326.00;1636784;86;27393;-57
2022/05/28 06:38:35;;;;;;;7.70;1.87;;;;;;;15.77;60.11;98326.00;1636685;87;25483;-58
2022/05/28 06:41:03;;;;;;;14.45;3.50;;;;;;;15.89;58.01;98327.08;1636780;87;25696;-60
2022/05/28 06:43:30;;;;;;;18.77;8.30;;;;;;;16.00;55.59;98330.13;1636852;87;25775;-58
2022/05/28 06:45:56;;;;;;;15.80;6.87;;;;;;;16.03;53.53;98325.23;1616404;87;25673;-58
2022/05/28 06:48:23;;;;;;;12.23;4.22;;;;;;;16.05;55.65;98328.45;1613204;87;27385;-58
2022/05/28 06:51:04;;;;;;;4.30;1.77;;;;;;;16.16;54.92;98322.61;1639227;86;25661;-58
2022/05/28 06:53:35;;;;;;;6.50;1.47;;;;;;;16.28;54.48;98314.77;1637984;87;25439;-58
2022/05/28 06:56:02;;;;;;;5.65;1.50;;;;;;;16.24;54.60;98315.28;1636725;87;26510;-59
2022/05/28 06:58:28;;;;;;;3.62;1.30;;;;;;;16.38;53.09;98319.52;1636845;87;25415;-58
2022/05/28 07:00:55;;;;;;;7.10;2.85;;;;;;;16.62;53.77;98316.27;1636891;87;27440;-57
2022/05/28 07:03:25;;;;;;;4.10;1.87;;;;;;;16.56;52.12;98321.30;1636519;87;25707;-57
2022/05/28 07:05:53;;;;;;;5.58;1.62;;;;;;;16.38;52.60;98321.69;1636721;86;25495;-58
2022/05/28 07:08:20;;;;;;;5.17;1.50;;;;;;;16.25;51.53;98312.73;1636367;87;25818;-58
2022/05/28 07:10:56;;;;;;;3.27;1.32;;;;;;;16.13;51.44;98318.38;1636627;87;25617;-57
2022/05/28 07:13:24;;;;;;;10.72;4.87;;;;;;;15.96;50.61;98309.28;1636841;87;28050;-57
2022/05/28 07:15:51;;;;;;;16.32;9.50;;;;;;;15.83;52.95;98313.31;1636650;87;25856;-56
2022/05/28 07:18:19;;;;;;;5.85;2.50;;;;;;;15.81;54.22;98313.06;1636808;87;25463;-56
2022/05/28 07:21:01;;;;;;;5.20;1.65;;;;;;;15.82;53.35;98315.26;1636625;87;25641;-57
2022/05/28 07:23:29;;;;;;;3.35;1.35;;;;;;;15.67;53.43;98312.73;1636798;87;25479;-57
2022/05/28 07:26:06;;;;;;;4.35;1.50;;;;;;;15.58;54.49;98312.10;1636697;87;27552;-57
2022/05/28 07:28:36;;;;;;;3.47;1.60;;;;;;;15.69;54.98;98309.05;1636830;87;25717;-59
2022/05/28 07:31:06;;;;;;;8.98;1.95;;;;;;;15.83;54.35;98300.28;1636743;87;25694;-58
2022/05/28 07:33:37;;;;;;;4.97;1.62;;;;;;;15.93;54.73;98299.75;1636805;87;25883;-58
2022/05/28 07:36:06;;;;;;;3.95;1.30;;;;;;;16.22;54.60;98294.09;1636544;87;25435;-59
2022/05/28 07:38:35;;;;;;;5.65;1.20;;;;;;;16.55;52.97;98291.44;1636697;87;28271;-58
2022/05/28 07:41:09;;;;;;;4.53;1.35;;;;;;;16.79;52.13;98286.80;1636554;87;25605;-58
2022/05/28 07:43:36;;;;;;;4.15;1.15;;;;;;;17.18;51.93;98288.73;1636783;86;25523;-57
2022/05/28 07:46:05;;;;;;;2.52;1.05;;;;;;;17.75;50.64;98286.50;1636552;87;25745;-57
2022/05/28 07:48:32;;;;;;;3.47;1.22;;;;;;;18.03;48.70;98277.03;1636627;87;25459;-57
2022/05/28 07:50:59;;;;;;;4.20;1.07;;;;;;;18.21;48.38;98276.50;1636734;87;27464;-58
2022/05/28 07:53:25;;;;;;;5.03;2.20;;;;;;;18.59;49.66;98280.17;1636518;87;25681;-57
2022/05/28 07:55:52;;;;;;;4.28;1.90;;;;;;;18.84;48.59;98269.16;1636565;86;25722;-58
2022/05/28 07:58:20;;;;;;;4.17;2.10;;;;;;;18.77;47.70;98269.28;1636734;87;25766;-58
2022/05/28 08:00:49;;;;;;;3.90;1.40;;;;;;;18.61;45.17;98276.44;1636620;87;25689;-57
2022/05/28 08:03:18;;;;;;;1.57;0.80;;;;;;;18.29;45.96;98279.02;1636432;87;27508;-58
2022/05/28 08:05:48;;;;;;;2.22;1.10;;;;;;;18.02;46.35;98274.83;1636577;87;25689;-57
2022/05/28 08:08:17;;;;;;;2.12;0.85;;;;;;;18.13;48.03;98278.41;1636795;87;25676;-58
2022/05/28 08:10:43;;;;;;;2.12;0.70;;;;;;;18.25;46.16;98277.38;1636549;86;25746;-60
2022/05/28 08:13:13;;;;;;;1.87;0.70;;;;;;;17.94;45.02;98274.53;1636755;87;25448;-58
2022/05/28 08:15:43;;;;;;;1.87;0.70;;;;;;;18.13;45.84;98268.09;1636569;87;27420;-60
2022/05/28 08:18:14;;;;;;;1.72;0.72;;;;;;;18.47;45.58;98272.09;1636654;87;25680;-59
2022/05/28 08:23:28;;;;;;;2.42;0.98;;;;;;;18.88;44.76;98263.86;1636474;87;25493;-61
2022/05/28 08:25:55;;;;;;;2.10;0.62;;;;;;;18.53;44.37;98263.06;1636737;86;25768;-59
2022/05/28 08:28:22;;;;;;;3.02;1.20;;;;;;;18.31;44.96;98268.94;1636401;87;27475;-57
2022/05/28 08:30:48;;;;;;;2.40;0.70;;;;;;;18.40;45.85;98265.27;1636274;87;25649;-60
2022/05/28 08:33:17;;;;;;;1.17;0.70;;;;;;;18.74;44.71;98258.94;1636811;87;25922;-57
2022/05/28 08:35:45;;;;;;;0.98;0.60;;;;;;;18.90;45.75;98260.12;1636743;87;26734;-58
2022/05/28 08:38:19;;;;;;;1.70;0.70;;;;;;;19.23;40.73;98250.73;1636651;87;25612;-58
2022/05/28 08:41:17;;;;;;;1.47;0.88;;;;;;;19.40;40.31;98254.09;1636667;87;27473;-60
2022/05/28 08:43:58;;;;;;;2.70;0.90;;;;;;;19.67;41.39;98247.76;1636905;86;25656;-58
2022/05/28 08:46:27;;;;;;;2.83;0.80;;;;;;;19.72;39.58;98247.18;1636892;87;25492;-59
2022/05/28 08:48:57;;;;;;;2.37;0.88;;;;;;;19.46;41.39;98242.02;1636699;87;26076;-58
2022/05/28 08:51:31;;;;;;;1.82;1.05;;;;;;;19.31;42.37;98248.83;1636828;87;25518;-60
2022/05/28 08:54:03;;;;;;;2.08;0.70;;;;;;;19.00;41.39;98260.01;1635914;87;27534;-58
2022/05/28 08:56:30;;;;;;;3.08;0.90;;;;;;;18.72;41.96;98257.73;1636397;87;25680;-60
2022/05/28 08:59:12;;;;;;;3.77;1.02;;;;;;;18.40;42.04;98268.05;1636322;87;25522;-58
2022/05/28 09:01:41;;;;;;;3.22;1.30;;;;;;;18.15;43.50;98261.59;1643742;87;25439;-58
2022/05/28 09:04:19;;;;;;;3.17;0.98;;;;;;;17.93;43.69;98267.37;1644158;87;25393;-57
2022/05/28 09:06:53;;;;;;;2.60;0.70;;;;;;;17.78;41.59;98265.78;1639287;86;26761;-58
2022/05/28 09:09:28;;;;;;;2.87;0.65;;;;;;;17.65;42.02;98270.71;1636362;86;25499;-58
2022/05/28 09:12:02;;;;;;;1.42;0.60;;;;;;;17.50;41.82;98270.28;1629551;86;25494;-59
2022/05/28 09:14:38;;;;;;;1.80;0.60;;;;;;;17.23;41.22;98270.20;1636735;87;25780;-58
2022/05/28 09:17:35;;;;;;;2.67;0.60;;;;;;;16.97;43.26;98266.95;1636995;87;25443;-61
2022/05/28 09:20:10;;;;;;;2.45;0.70;;;;;;;16.71;42.26;98269.02;1636716;87;27498;-61
2022/05/28 09:22:37;;;;;;;2.27;0.85;;;;;;;16.72;44.14;98276.95;1636672;87;25451;-59
2022/05/28 09:25:06;;;;;;;1.65;0.53;;;;;;;16.80;43.34;98262.10;1636430;87;25448;-61
2022/05/28 09:28:06;;;;;;;0.93;0.65;;;;;;;17.43;44.21;98269.56;1636647;87;25745;-62
2022/05/28 09:30:44;;;;;;;1.75;0.70;;;;;;;17.72;43.66;98269.23;1635615;87;25688;-58
2022/05/28 09:33:34;;;;;;;1.40;0.70;;;;;;;17.72;43.08;98270.61;1636411;87;27480;-60
2022/05/28 09:36:12;;;;;;;0.80;0.60;;;;;;;17.99;43.97;98273.41;1636777;87;54707;-58
2022/05/28 09:38:47;;;;;;;2.35;0.65;;;;;;;17.97;43.00;98264.08;1636348;86;25624;-59
2022/05/28 09:41:31;;;;;;;5.10;0.60;;;;;;;17.99;41.79;98266.48;1596048;89;25701;-59
2022/05/28 09:44:15;;;;;;;2.00;0.75;;;;;;;17.79;43.20;98265.20;1599195;88;25687;-59
2022/05/28 09:46:44;;;;;;;1.67;0.90;;;;;;;17.64;43.75;98273.27;1613482;88;27477;-59
2022/05/28 09:49:16;;;;;;;3.35;0.90;;;;;;;17.65;44.11;98267.16;1613321;88;25885;-60
2022/05/28 09:52:08;;;;;;;2.80;0.72;;;;;;;17.50;44.66;98266.13;1613162;88;25826;-57
2022/05/28 09:54:38;;;;;;;2.02;1.00;;;;;;;17.55;44.70;98270.77;1613595;88;25716;-58
2022/05/28 09:57:12;;;;;;;3.55;1.05;;;;;;;17.62;44.65;98276.99;1613129;88;25561;-62
2022/05/28 09:59:55;;;;;;;1.32;0.80;;;;;;;17.51;44.33;98275.45;1613318;88;27419;-58
2022/05/28 10:02:35;;;;;;;2.50;1.22;;;;;;;17.41;45.17;98276.86;1612975;88;25876;-60
2022/05/28 10:05:16;;;;;;;2.15;0.93;;;;;;;17.33;45.29;98272.95;1613246;88;25791;-58
2022/05/28 10:07:51;;;;;;;2.45;1.20;;;;;;;17.65;45.80;98267.94;1613479;88;25730;-57
2022/05/28 10:10:28;;;;;;;2.25;1.10;;;;;;;18.34;44.34;98275.12;1612796;88;25790;-58
2022/05/28 10:13:08;;;;;;;3.40;0.90;;;;;;;18.75;43.32;98270.85;1616147;88;27563;-57
2022/05/28 10:15:43;;;;;;;5.12;1.10;;;;;;;18.99;43.82;98252.88;1614929;88;25515;-58
2022/05/28 10:18:14;;;;;;;1.57;0.90;;;;;;;18.99;43.82;98252.88;1625254;86;25817;-58
2022/05/28 10:20:41;;;;;;;2.05;1.10;;;;;;;19.63;42.78;98257.25;1661400;86;25431;-58
2022/05/28 10:23:18;;;;;;;2.85;0.90;;;;;;;19.79;42.83;98246.64;1661818;86;25429;-60
2022/05/28 10:25:49;;;;;;;2.83;0.82;;;;;;;19.43;41.52;98249.16;1661104;86;27543;-58
2022/05/28 10:28:32;;;;;;;2.65;0.88;;;;;;;19.18;41.85;98265.80;1661770;86;25910;-59
2022/05/28 10:31:00;;;;;;;3.15;0.70;;;;;;;19.02;42.51;98277.09;1656252;86;25633;-58
2022/05/28 10:33:29;;;;;;;2.27;0.60;;;;;;;18.78;41.19;98298.66;1650100;86;25868;-58
2022/05/28 10:36:12;;;;;;;3.10;0.73;;;;;;;18.52;42.22;98310.03;1653601;86;25627;-58
2022/05/28 10:38:39;;;;;;;0.82;0.70;;;;;;;18.22;43.51;98305.85;1651667;85;28344;-58
2022/05/28 10:41:26;;;;;;;1.45;0.75;;;;;;;17.84;42.39;98298.12;1656212;85;25633;-59
2022/05/28 10:43:53;;;;;;;1.25;0.70;;;;;;;17.42;42.58;98299.83;1633926;87;25699;-57
2022/05/28 10:46:51;;;;;;;2.25;0.80;;;;;;;17.13;43.29;98293.17;1633813;87;27803;-58
2022/05/28 10:49:35;;;;;;;1.75;0.60;;;;;;;17.12;43.67;98311.53;1633867;87;25684;-57
2022/05/28 10:52:29;;;;;;;1.82;0.80;;;;;;;16.90;43.12;98311.11;1633866;87;27386;-57
2022/05/28 10:55:15;;;;;;;2.85;0.70;;;;;;;16.84;42.71;98320.87;1633751;87;25638;-57
2022/05/28 10:58:08;;;;;;;1.35;0.62;;;;;;;16.44;44.08;98336.06;1629532;87;25594;-57
2022/05/28 11:00:49;;;;;;;1.12;0.70;;;;;;;16.13;44.44;98338.53;1633903;87;26127;-57
2022/05/28 11:03:30;;;;;;;2.10;0.70;;;;;;;15.76;45.80;98349.27;1632286;87;25431;-58
2022/05/28 11:06:27;;;;;;;1.30;0.60;;;;;;;15.55;47.51;98373.78;1633501;87;25992;-58
2022/05/28 11:09:14;;;;;;;2.45;0.70;;;;;;;15.12;49.59;98382.30;1633945;86;25601;-59
2022/05/28 11:12:03;;;;;;;2.60;0.60;;;;;;;14.65;52.60;98407.93;1635293;87;25676;-57
2022/05/28 11:14:59;;;;;;;2.12;0.72;;;;;;;14.13;56.63;98403.37;1636712;87;26136;-57
2022/05/28 11:17:43;;;;;;;3.75;1.10;;;;;;;13.54;58.93;98396.50;1636751;87;25666;-61
2022/05/28 11:20:20;;;;;;;1.95;1.10;;;;;;;13.16;64.43;98385.92;1636526;87;27804;-61
2022/05/28 11:23:04;;;;;;;2.60;1.00;;;;;;;13.30;64.34;98370.50;1635913;87;25665;-61
2022/05/28 11:26:17;;;;;;;4.42;1.50;;;;;;;13.74;67.71;98369.23;1636732;87;25717;-61
2022/05/28 11:28:55;;;;;;;4.28;1.90;;;;;;;13.99;65.01;98369.27;1636511;87;25912;-61
2022/05/28 11:31:41;;;;;;;2.00;1.30;;;;;;;14.16;64.24;98358.56;1636936;87;25738;-59
2022/05/28 11:34:15;;;;;;;1.85;1.12;;;;;;;14.24;62.55;98350.77;1636437;86;26010;-61
2022/05/28 11:36:56;;;;;;;1.35;0.90;;;;;;;14.53;66.17;98332.91;1636266;86;25466;-57
2022/05/28 11:39:55;;;;;;;1.40;1.15;;;;;;;14.82;61.94;98319.19;1636791;87;25531;-60
2022/05/28 11:42:57;;;;;;;2.60;1.17;;;;;;;14.91;63.66;98318.47;1636485;86;25742;-57
2022/05/28 11:45:47;;;;;;;1.32;1.00;;;;;;;15.57;65.09;98300.25;1636700;87;25688;-59
2022/05/28 11:48:24;;;;;;;3.15;1.02;;;;;;;16.28;63.63;98303.72;1636602;86;28394;-58
2022/05/28 11:53:53;;;;;;;2.25;1.10;;;;;;;17.29;61.16;98311.66;1636318;87;25678;-62
2022/05/28 11:56:28;;;;;;;2.92;1.35;;;;;;;17.79;57.84;98315.09;1627290;88;25748;-60
2022/05/28 11:59:02;;;;;;;1.40;1.10;;;;;;;18.06;56.23;98320.06;1646227;86;25724;-60
2022/05/28 12:01:34;;;;;;;2.40;1.17;;;;;;;18.62;58.18;98309.17;1646951;87;27432;-58